SVMD/MRD METAR and TAF weather

Enter ICAO airport designator
Station Type Date Time Source
SVMD METAR 2018/12/06 16:00 UTC NOAA

SVMD 061600Z 23003KT 9999 FEW030 BKN300 23/13 Q1023


Station Type Date Time Source
SVMD Decoded METAR 2018/12/06 16:00 UTC NOAA

Merida, Venezuela (SVMD) 08-36N 071-11W 1498M
Dec 06, 2018 - 11:00 AM EST / 2018.12.06 1600 UTC
Wind: from the SW (230 degrees) at 3 MPH (3 KT):0
Visibility: greater than 7 mile(s):0
Sky conditions: mostly cloudy
Temperature: 73 F (23 C)
Dew Point: 55 F (13 C)
Relative Humidity: 53%
Pressure (altimeter): 30.21 in. Hg (1023 hPa)
ob: SVMD 061600Z 23003KT 9999 FEW030 BKN300 23/13 Q1023
cycle: 16

Station Type Date Time Source
SVMD TAF UTC NOAA

Error!


Example: see airport list